createdAt,value
2018-11-06T00:00:02.561Z,796.86
2018-11-06T00:00:06.874Z,796.83
2018-11-06T00:00:10.972Z,796.8
2018-11-06T00:00:15.064Z,796.83
2018-11-06T00:00:19.271Z,796.8
2018-11-06T00:00:23.371Z,796.8
2018-11-06T00:00:27.568Z,796.79
2018-11-06T00:00:31.765Z,796.74
2018-11-06T00:00:35.971Z,796.77
2018-11-06T00:00:40.071Z,796.76
2018-11-06T00:00:44.373Z,796.78
2018-11-06T00:00:48.472Z,796.75
2018-11-06T00:00:52.683Z,796.69
2018-11-06T00:00:56.992Z,796.72
2018-11-06T00:01:01.082Z,796.7
2018-11-06T00:01:05.285Z,796.69
2018-11-06T00:01:09.487Z,796.7
2018-11-06T00:01:13.692Z,796.67
2018-11-06T00:01:17.888Z,796.68
2018-11-06T00:01:22.196Z,796.65
2018-11-06T00:01:26.293Z,796.66
2018-11-06T00:01:30.485Z,796.64
2018-11-06T00:01:34.800Z,796.63
2018-11-06T00:01:38.890Z,796.61
2018-11-06T00:01:43.103Z,796.61
2018-11-06T00:01:47.303Z,796.57
2018-11-06T00:01:51.622Z,796.59
2018-11-06T00:01:55.829Z,796.56
2018-11-06T00:02:00.145Z,796.54
2018-11-06T00:02:04.240Z,796.56
2018-11-06T00:02:08.330Z,796.53
2018-11-06T00:02:12.428Z,796.55
2018-11-06T00:02:16.732Z,796.53
2018-11-06T00:02:20.936Z,796.53
2018-11-06T00:02:25.192Z,796.5
2018-11-06T00:02:29.396Z,796.49
2018-11-06T00:02:33.593Z,796.52
2018-11-06T00:02:37.856Z,796.47
2018-11-06T00:02:42.059Z,796.48
2018-11-06T00:02:46.369Z,796.46
2018-11-06T00:02:50.573Z,796.45
2018-11-06T00:02:54.668Z,796.44
2018-11-06T00:02:58.761Z,796.45
2018-11-06T00:03:02.864Z,796.41
2018-11-06T00:03:06.949Z,796.41
2018-11-06T00:03:11.048Z,796.38
2018-11-06T00:03:15.364Z,796.37
2018-11-06T00:03:19.663Z,796.38
2018-11-06T00:03:23.862Z,796.36
2018-11-06T00:03:28.200Z,796.35
2018-11-06T00:03:32.303Z,796.34
2018-11-06T00:03:36.606Z,796.34
2018-11-06T00:03:40.808Z,796.34
2018-11-06T00:03:44.909Z,796.36
2018-11-06T00:03:49.209Z,796.28
2018-11-06T00:03:53.199Z,796.27
2018-11-06T00:03:57.289Z,796.3
2018-11-06T00:04:01.492Z,796.28
2018-11-06T00:04:05.691Z,796.27
2018-11-06T00:04:09.898Z,796.29
2018-11-06T00:04:13.995Z,796.24
2018-11-06T00:04:18.308Z,796.21
2018-11-06T00:04:22.610Z,796.19
2018-11-06T00:04:26.708Z,796.18
2018-11-06T00:04:31.013Z,796.2
2018-11-06T00:04:35.319Z,796.19
2018-11-06T00:04:39.417Z,796.14
2018-11-06T00:04:43.614Z,796.16
2018-11-06T00:04:47.922Z,796.11
2018-11-06T00:04:52.243Z,796.1
2018-11-06T00:04:56.551Z,796.1
2018-11-06T00:05:00.746Z,796.11
2018-11-06T00:05:05.050Z,796.08
2018-11-06T00:05:09.247Z,796.07
2018-11-06T00:05:13.339Z,796.03
2018-11-06T00:05:17.551Z,796.02
2018-11-06T00:05:21.869Z,796.03
2018-11-06T00:05:26.075Z,796.02
2018-11-06T00:05:30.374Z,795.97
2018-11-06T00:05:34.574Z,795.95
2018-11-06T00:05:38.880Z,795.94
2018-11-06T00:05:43.184Z,795.94
2018-11-06T00:05:47.392Z,795.92
2018-11-06T00:05:51.588Z,795.92
2018-11-06T00:05:55.687Z,795.88
2018-11-06T00:05:59.982Z,795.89
2018-11-06T00:06:04.181Z,795.88
2018-11-06T00:06:08.487Z,795.9
2018-11-06T00:06:12.685Z,795.83
2018-11-06T00:06:16.988Z,795.87
2018-11-06T00:06:21.083Z,795.85
2018-11-06T00:06:25.280Z,795.82
2018-11-06T00:06:29.584Z,795.84
2018-11-06T00:06:33.784Z,795.81
2018-11-06T00:06:38.092Z,795.76
2018-11-06T00:06:42.295Z,795.76
2018-11-06T00:06:46.539Z,795.77
2018-11-06T00:06:50.740Z,795.75
2018-11-06T00:06:55.052Z,795.74
2018-11-06T00:06:59.250Z,795.75
2018-11-06T00:07:03.461Z,795.77
2018-11-06T00:07:07.556Z,795.68
2018-11-06T00:07:11.753Z,795.73
2018-11-06T00:07:15.947Z,795.71
2018-11-06T00:07:20.148Z,795.71
2018-11-06T00:07:24.335Z,795.7
2018-11-06T00:07:28.532Z,795.69
2018-11-06T00:07:32.728Z,795.7
2018-11-06T00:07:36.971Z,795.69
2018-11-06T00:07:41.288Z,795.66
2018-11-06T00:07:45.485Z,795.66
2018-11-06T00:07:49.696Z,795.65
2018-11-06T00:07:53.896Z,795.67
2018-11-06T00:07:58.098Z,795.61
2018-11-06T00:08:02.315Z,795.63
2018-11-06T00:08:06.512Z,795.63
2018-11-06T00:08:10.497Z,795.64
2018-11-06T00:08:14.694Z,795.6
2018-11-06T00:08:18.788Z,795.59
2018-11-06T00:08:23.090Z,795.58
2018-11-06T00:08:27.287Z,795.58
2018-11-06T00:08:31.271Z,795.59
2018-11-06T00:08:35.572Z,795.6
2018-11-06T00:08:39.777Z,795.56
2018-11-06T00:08:43.882Z,795.57
2018-11-06T00:08:47.971Z,795.58
2018-11-06T00:08:52.273Z,795.6
2018-11-06T00:08:56.361Z,795.59
2018-11-06T00:09:00.697Z,795.59
2018-11-06T00:09:04.909Z,795.57
2018-11-06T00:09:09.105Z,795.56
2018-11-06T00:09:13.479Z,795.6
2018-11-06T00:09:18.330Z,795.54
2018-11-06T00:09:23.453Z,795.61
2018-11-06T00:09:27.469Z,795.57
2018-11-06T00:09:31.640Z,795.56
2018-11-06T00:09:35.843Z,795.58
2018-11-06T00:09:40.159Z,795.57
2018-11-06T00:09:44.260Z,795.58
2018-11-06T00:09:48.459Z,795.57
2018-11-06T00:09:52.761Z,795.56
2018-11-06T00:09:57.070Z,795.54
2018-11-06T00:10:01.375Z,795.55
2018-11-06T00:10:05.366Z,795.56
2018-11-06T00:10:09.679Z,795.54
2018-11-06T00:10:13.902Z,795.54
2018-11-06T00:10:18.109Z,795.56
2018-11-06T00:10:22.310Z,795.55
2018-11-06T00:10:26.630Z,795.53
2018-11-06T00:10:30.830Z,795.55
2018-11-06T00:10:35.154Z,795.52
2018-11-06T00:10:39.464Z,795.53
2018-11-06T00:10:43.453Z,795.56
2018-11-06T00:10:47.458Z,795.53
2018-11-06T00:10:51.569Z,795.46
2018-11-06T00:10:55.774Z,795.53
2018-11-06T00:11:00.025Z,795.55
2018-11-06T00:11:03.909Z,795.51
2018-11-06T00:11:08.119Z,795.53
2018-11-06T00:11:12.438Z,795.51
2018-11-06T00:11:16.648Z,795.51
2018-11-06T00:11:20.847Z,795.52
2018-11-06T00:11:25.046Z,795.52
2018-11-06T00:11:29.355Z,795.5
2018-11-06T00:11:33.556Z,795.47
2018-11-06T00:11:37.860Z,795.48
2018-11-06T00:11:42.173Z,795.46
2018-11-06T00:11:46.373Z,795.47
2018-11-06T00:11:50.578Z,795.49
2018-11-06T00:11:54.773Z,795.47
2018-11-06T00:11:59.082Z,795.48
2018-11-06T00:12:03.186Z,795.44
2018-11-06T00:12:07.487Z,795.47
2018-11-06T00:12:11.691Z,795.47
2018-11-06T00:12:15.783Z,795.43
2018-11-06T00:12:19.985Z,795.47
2018-11-06T00:12:24.188Z,795.45
2018-11-06T00:12:28.496Z,795.44
2018-11-06T00:12:32.819Z,795.47
2018-11-06T00:12:36.917Z,795.43
2018-11-06T00:12:40.910Z,795.48
2018-11-06T00:12:45.221Z,795.45
2018-11-06T00:12:49.537Z,795.43
2018-11-06T00:12:53.864Z,795.45
2018-11-06T00:12:58.189Z,795.45
2018-11-06T00:13:02.396Z,795.45
2018-11-06T00:13:06.485Z,795.47
2018-11-06T00:13:10.582Z,795.42
2018-11-06T00:13:14.802Z,795.45
2018-11-06T00:13:19.031Z,795.42
2018-11-06T00:13:23.344Z,795.4
2018-11-06T00:13:27.560Z,795.43
2018-11-06T00:13:31.882Z,795.44
2018-11-06T00:13:36.081Z,795.41
2018-11-06T00:13:40.298Z,795.43
2018-11-06T00:13:44.608Z,795.42
2018-11-06T00:13:48.708Z,795.41
2018-11-06T00:13:53.017Z,795.43
2018-11-06T00:13:57.222Z,795.45
2018-11-06T00:14:01.529Z,795.39
2018-11-06T00:14:05.734Z,795.45
2018-11-06T00:14:09.832Z,795.44
2018-11-06T00:14:13.935Z,795.42
2018-11-06T00:14:18.036Z,795.48
2018-11-06T00:14:22.353Z,795.45
2018-11-06T00:14:26.666Z,795.47
2018-11-06T00:14:30.659Z,795.46
2018-11-06T00:14:34.854Z,795.49
2018-11-06T00:14:39.161Z,795.48
2018-11-06T00:14:43.373Z,795.45
2018-11-06T00:14:47.572Z,795.46
2018-11-06T00:14:51.776Z,795.48
2018-11-06T00:14:55.974Z,795.45
2018-11-06T00:15:00.175Z,795.4
2018-11-06T00:15:04.269Z,795.44
2018-11-06T00:15:08.583Z,795.4
2018-11-06T00:15:12.782Z,795.42
2018-11-06T00:15:16.981Z,795.47
2018-11-06T00:15:21.298Z,795.47
2018-11-06T00:15:25.625Z,795.5
2018-11-06T00:15:29.954Z,795.54
2018-11-06T00:15:34.157Z,795.49
2018-11-06T00:15:38.362Z,795.49
2018-11-06T00:15:42.696Z,795.47
2018-11-06T00:15:46.900Z,795.45
2018-11-06T00:15:51.213Z,795.51
2018-11-06T00:15:55.310Z,795.52
2018-11-06T00:15:59.621Z,795.5
2018-11-06T00:16:03.818Z,795.51
2018-11-06T00:16:08.028Z,795.54
2018-11-06T00:16:12.334Z,795.54
2018-11-06T00:16:16.642Z,795.53
2018-11-06T00:16:20.958Z,795.54
2018-11-06T00:16:25.167Z,795.57
2018-11-06T00:16:29.266Z,795.54
2018-11-06T00:16:33.475Z,795.53
2018-11-06T00:16:37.781Z,795.54
2018-11-06T00:16:42.095Z,795.56
2018-11-06T00:16:46.302Z,795.57
2018-11-06T00:16:50.391Z,795.54
2018-11-06T00:16:54.701Z,795.5
2018-11-06T00:16:58.798Z,795.56
2018-11-06T00:17:02.793Z,795.52
2018-11-06T00:17:06.892Z,795.53
2018-11-06T00:17:10.985Z,795.56
2018-11-06T00:17:15.190Z,795.54
2018-11-06T00:17:19.288Z,795.52
2018-11-06T00:17:23.591Z,795.52
2018-11-06T00:17:27.897Z,795.5
2018-11-06T00:17:32.224Z,795.5
2018-11-06T00:17:36.428Z,795.5
2018-11-06T00:17:40.627Z,795.5
2018-11-06T00:17:44.934Z,795.49
2018-11-06T00:17:49.133Z,795.49
2018-11-06T00:17:53.326Z,795.47
2018-11-06T00:17:57.632Z,795.46
2018-11-06T00:18:01.855Z,795.47
2018-11-06T00:18:06.059Z,795.46
2018-11-06T00:18:10.153Z,795.39
2018-11-06T00:18:14.354Z,795.45
2018-11-06T00:18:18.458Z,795.41
2018-11-06T00:18:22.664Z,795.4
2018-11-06T00:18:26.968Z,795.36
2018-11-06T00:18:31.271Z,795.39
2018-11-06T00:18:35.587Z,795.37
2018-11-06T00:18:39.835Z,795.33
2018-11-06T00:18:44.033Z,795.3
2018-11-06T00:18:48.242Z,795.28
2018-11-06T00:18:52.444Z,795.29
2018-11-06T00:18:56.649Z,795.25
2018-11-06T00:19:00.845Z,795.26
2018-11-06T00:19:05.057Z,795.27
2018-11-06T00:19:09.375Z,795.19
2018-11-06T00:19:13.709Z,795.2
2018-11-06T00:19:18.018Z,795.21
2018-11-06T00:19:22.216Z,795.24
2018-11-06T00:19:26.419Z,795.14
2018-11-06T00:19:30.729Z,795.16
2018-11-06T00:19:34.927Z,795.18
2018-11-06T00:19:39.127Z,795.09
2018-11-06T00:19:43.433Z,795.11
2018-11-06T00:19:47.743Z,795.12
2018-11-06T00:19:51.944Z,795.06
2018-11-06T00:19:56.252Z,795.05
2018-11-06T00:20:00.556Z,795.07
2018-11-06T00:20:04.654Z,795.05
2018-11-06T00:20:08.757Z,795.03
2018-11-06T00:20:12.852Z,795
2018-11-06T00:20:17.189Z,794.99
2018-11-06T00:20:21.176Z,794.95
2018-11-06T00:20:25.383Z,794.95
2018-11-06T00:20:29.684Z,794.93
2018-11-06T00:20:33.997Z,794.91
2018-11-06T00:20:38.310Z,794.9
2018-11-06T00:20:42.403Z,794.88
2018-11-06T00:20:46.712Z,794.85
2018-11-06T00:20:51.017Z,794.88
2018-11-06T00:20:55.208Z,794.85
2018-11-06T00:20:59.406Z,794.84
2018-11-06T00:21:03.514Z,794.79
2018-11-06T00:21:07.717Z,794.77
2018-11-06T00:21:11.809Z,794.81
2018-11-06T00:21:15.904Z,794.79
2018-11-06T00:21:19.896Z,794.78
2018-11-06T00:21:24.204Z,794.76
2018-11-06T00:21:28.514Z,794.72
2018-11-06T00:21:32.825Z,794.7
2018-11-06T00:21:36.925Z,794.68
2018-11-06T00:21:41.127Z,794.7
2018-11-06T00:21:45.483Z,794.65
2018-11-06T00:21:49.578Z,794.64
2018-11-06T00:21:53.891Z,794.6
2018-11-06T00:21:58.100Z,794.6
2018-11-06T00:22:02.303Z,794.58
2018-11-06T00:22:06.511Z,794.56
2018-11-06T00:22:10.604Z,794.52
2018-11-06T00:22:14.695Z,794.52
2018-11-06T00:22:18.993Z,794.51
2018-11-06T00:22:23.086Z,794.47
2018-11-06T00:22:27.174Z,794.42
2018-11-06T00:22:31.273Z,794.42
2018-11-06T00:22:35.469Z,794.4
2018-11-06T00:22:39.682Z,794.36
2018-11-06T00:22:43.984Z,794.37
2018-11-06T00:22:48.298Z,794.35
2018-11-06T00:22:52.494Z,794.33
2018-11-06T00:22:56.600Z,794.29
2018-11-06T00:23:00.804Z,794.28
2018-11-06T00:23:05.164Z,794.24
2018-11-06T00:23:09.253Z,794.22
2018-11-06T00:23:13.458Z,794.19
2018-11-06T00:23:17.660Z,794.19
2018-11-06T00:23:21.744Z,794.19
2018-11-06T00:23:25.942Z,794.17
2018-11-06T00:23:30.138Z,794.13
2018-11-06T00:23:34.445Z,794.11
2018-11-06T00:23:38.658Z,794.1
2018-11-06T00:23:42.850Z,794.04
2018-11-06T00:23:46.837Z,794.08
2018-11-06T00:23:51.034Z,794.06
2018-11-06T00:23:55.335Z,794.02
2018-11-06T00:23:59.643Z,794
2018-11-06T00:24:03.789Z,793.99
2018-11-06T00:24:07.993Z,793.97
2018-11-06T00:24:12.309Z,793.93
2018-11-06T00:24:16.618Z,793.93
2018-11-06T00:24:20.830Z,793.93
2018-11-06T00:24:24.921Z,793.87
2018-11-06T00:24:29.115Z,793.87
2018-11-06T00:24:33.313Z,793.84
2018-11-06T00:24:37.415Z,793.84
2018-11-06T00:24:41.613Z,793.8
2018-11-06T00:24:45.815Z,793.79
2018-11-06T00:24:49.802Z,793.76
2018-11-06T00:24:54.046Z,793.76
2018-11-06T00:24:58.365Z,793.76
2018-11-06T00:25:02.490Z,793.76
2018-11-06T00:25:06.475Z,793.72
2018-11-06T00:25:10.682Z,793.71
2018-11-06T00:25:14.992Z,793.72
2018-11-06T00:25:19.196Z,793.67
2018-11-06T00:25:23.557Z,793.7
2018-11-06T00:25:27.761Z,793.68
2018-11-06T00:25:32.079Z,793.67
2018-11-06T00:25:36.384Z,793.64
2018-11-06T00:25:40.477Z,793.68
2018-11-06T00:25:44.673Z,793.65
2018-11-06T00:25:48.873Z,793.64
2018-11-06T00:25:53.180Z,793.61
2018-11-06T00:25:57.496Z,793.59
2018-11-06T00:26:01.698Z,793.6
2018-11-06T00:26:05.798Z,793.58
2018-11-06T00:26:09.942Z,793.58
2018-11-06T00:26:14.146Z,793.6
2018-11-06T00:26:18.348Z,793.59
2018-11-06T00:26:22.668Z,793.6
2018-11-06T00:26:26.867Z,793.54
2018-11-06T00:26:31.073Z,793.51
2018-11-06T00:26:35.165Z,793.48
2018-11-06T00:26:39.504Z,793.52
2018-11-06T00:26:43.732Z,793.51
2018-11-06T00:26:47.822Z,793.5
2018-11-06T00:26:52.151Z,793.53
2018-11-06T00:26:56.468Z,793.54
2018-11-06T00:27:00.680Z,793.55
2018-11-06T00:27:04.672Z,793.5
2018-11-06T00:27:08.872Z,793.55
2018-11-06T00:27:13.180Z,793.51
2018-11-06T00:27:17.287Z,793.52
2018-11-06T00:27:21.376Z,793.53
2018-11-06T00:27:25.577Z,793.45
2018-11-06T00:27:29.888Z,793.52
2018-11-06T00:27:34.089Z,793.53
2018-11-06T00:27:38.332Z,793.52
2018-11-06T00:27:42.530Z,793.5
2018-11-06T00:27:46.730Z,793.5
2018-11-06T00:27:50.606Z,793.51
2018-11-06T00:27:54.912Z,793.51
2018-11-06T00:27:59.118Z,793.47
2018-11-06T00:28:03.433Z,793.51
2018-11-06T00:28:07.647Z,793.51
2018-11-06T00:28:11.847Z,793.52
2018-11-06T00:28:16.053Z,793.49
2018-11-06T00:28:20.146Z,793.45
2018-11-06T00:28:24.355Z,793.52
2018-11-06T00:28:28.566Z,793.52
2018-11-06T00:28:32.780Z,793.53
2018-11-06T00:28:36.873Z,793.5
2018-11-06T00:28:40.962Z,793.55
2018-11-06T00:28:45.263Z,793.55
2018-11-06T00:28:49.460Z,793.58
2018-11-06T00:28:53.668Z,793.54
2018-11-06T00:28:57.912Z,793.55
2018-11-06T00:29:02.003Z,793.56
2018-11-06T00:29:06.203Z,793.53
2018-11-06T00:29:10.306Z,793.57
2018-11-06T00:29:14.505Z,793.52
2018-11-06T00:29:18.706Z,793.56
2018-11-06T00:29:22.686Z,793.52
2018-11-06T00:29:26.891Z,793.56
2018-11-06T00:29:31.097Z,793.55
2018-11-06T00:29:35.191Z,793.6
2018-11-06T00:29:39.499Z,793.58
2018-11-06T00:29:43.699Z,793.59
2018-11-06T00:29:47.912Z,793.55
2018-11-06T00:29:52.118Z,793.63
2018-11-06T00:29:56.423Z,793.61
2018-11-06T00:30:00.733Z,793.6
2018-11-06T00:30:04.723Z,793.59
2018-11-06T00:30:08.964Z,793.61
2018-11-06T00:30:13.160Z,793.64
2018-11-06T00:30:17.471Z,793.65
2018-11-06T00:30:21.349Z,793.68
2018-11-06T00:30:25.386Z,793.68
2018-11-06T00:30:29.706Z,793.69
2018-11-06T00:30:33.912Z,793.65
2018-11-06T00:30:38.123Z,793.72
2018-11-06T00:30:42.216Z,793.73
2018-11-06T00:30:46.422Z,793.69
2018-11-06T00:30:50.623Z,793.68
2018-11-06T00:30:54.831Z,793.78
2018-11-06T00:30:59.139Z,793.76
2018-11-06T00:31:03.443Z,793.75
2018-11-06T00:31:07.760Z,793.8
2018-11-06T00:31:11.962Z,793.78
2018-11-06T00:31:16.066Z,793.82
2018-11-06T00:31:20.160Z,793.85
2018-11-06T00:31:24.476Z,793.87
2018-11-06T00:31:28.582Z,793.87
2018-11-06T00:31:32.902Z,793.84
2018-11-06T00:31:36.896Z,793.84
2018-11-06T00:31:41.111Z,793.86
2018-11-06T00:31:45.322Z,793.92
2018-11-06T00:31:49.630Z,793.91
2018-11-06T00:31:53.719Z,793.93
2018-11-06T00:31:58.032Z,793.9
2018-11-06T00:32:02.393Z,793.89
2018-11-06T00:32:06.700Z,793.96
2018-11-06T00:32:10.799Z,793.97
2018-11-06T00:32:14.890Z,793.98
2018-11-06T00:32:19.092Z,794.01
2018-11-06T00:32:23.190Z,794
2018-11-06T00:32:27.292Z,793.99
2018-11-06T00:32:31.289Z,794.04
2018-11-06T00:32:35.498Z,794.05
2018-11-06T00:32:39.695Z,794.05
2018-11-06T00:32:44.049Z,794.08
2018-11-06T00:32:48.250Z,794.08
2018-11-06T00:32:52.350Z,794.11
2018-11-06T00:32:56.569Z,794.1
2018-11-06T00:33:00.878Z,794.1
2018-11-06T00:33:04.968Z,794.12
2018-11-06T00:33:09.080Z,794.12
2018-11-06T00:33:13.277Z,794.11
2018-11-06T00:33:17.480Z,794.12
2018-11-06T00:33:21.672Z,794.13
2018-11-06T00:33:25.985Z,794.11
2018-11-06T00:33:30.316Z,794.15
2018-11-06T00:33:34.514Z,794.15
2018-11-06T00:33:38.868Z,794.15
2018-11-06T00:33:43.173Z,794.23
2018-11-06T00:33:47.266Z,794.2
2018-11-06T00:33:51.467Z,794.21
2018-11-06T00:33:55.752Z,794.21
2018-11-06T00:34:00.347Z,794.19
2018-11-06T00:34:04.831Z,794.24
2018-11-06T00:34:09.753Z,794.25
2018-11-06T00:34:14.793Z,794.23
2018-11-06T00:34:19.681Z,794.24
2018-11-06T00:34:24.456Z,794.24
2018-11-06T00:34:28.549Z,794.26
2018-11-06T00:34:32.868Z,794.27
2018-11-06T00:34:37.183Z,794.29
2018-11-06T00:34:41.496Z,794.27
2018-11-06T00:34:45.588Z,794.28
2018-11-06T00:34:49.899Z,794.3
2018-11-06T00:34:54.207Z,794.32
2018-11-06T00:34:58.516Z,794.28
2018-11-06T00:35:02.725Z,794.32
2018-11-06T00:35:06.615Z,794.32
2018-11-06T00:35:10.925Z,794.3
2018-11-06T00:35:15.146Z,794.29
2018-11-06T00:35:19.354Z,794.3
2018-11-06T00:35:23.458Z,794.32
2018-11-06T00:35:27.663Z,794.3
2018-11-06T00:35:31.866Z,794.27
2018-11-06T00:35:35.956Z,794.29
2018-11-06T00:35:40.158Z,794.28
2018-11-06T00:35:44.359Z,794.32
2018-11-06T00:35:48.451Z,794.33
2018-11-06T00:35:52.554Z,794.33
2018-11-06T00:35:56.866Z,794.35
2018-11-06T00:36:01.188Z,794.34
2018-11-06T00:36:05.291Z,794.32
2018-11-06T00:36:09.400Z,794.37
2018-11-06T00:36:13.614Z,794.36
2018-11-06T00:36:17.721Z,794.37
2018-11-06T00:36:21.929Z,794.37
2018-11-06T00:36:26.246Z,794.33
2018-11-06T00:36:30.563Z,794.35
2018-11-06T00:36:34.660Z,794.34
2018-11-06T00:36:38.858Z,794.41
2018-11-06T00:36:42.949Z,794.4
2018-11-06T00:36:47.038Z,794.37
2018-11-06T00:36:51.354Z,794.4
2018-11-06T00:36:55.462Z,794.41
2018-11-06T00:36:59.666Z,794.37
2018-11-06T00:37:03.701Z,794.37
2018-11-06T00:37:08.010Z,794.41
2018-11-06T00:37:12.214Z,794.4
2018-11-06T00:37:16.416Z,794.39
2018-11-06T00:37:20.619Z,794.39
2018-11-06T00:37:24.925Z,794.4
2018-11-06T00:37:29.021Z,794.4
2018-11-06T00:37:33.227Z,794.4
2018-11-06T00:37:37.426Z,794.4
2018-11-06T00:37:41.736Z,794.4
2018-11-06T00:37:46.091Z,794.41
2018-11-06T00:37:50.293Z,794.35
2018-11-06T00:37:54.278Z,794.39
2018-11-06T00:37:58.482Z,794.41
2018-11-06T00:38:02.720Z,794.38
2018-11-06T00:38:06.829Z,794.36
2018-11-06T00:38:10.931Z,794.4
2018-11-06T00:38:15.235Z,794.38
2018-11-06T00:38:19.441Z,794.4
2018-11-06T00:38:23.750Z,794.41
2018-11-06T00:38:28.054Z,794.36
2018-11-06T00:38:32.360Z,794.38
2018-11-06T00:38:36.675Z,794.38
2018-11-06T00:38:40.878Z,794.42
2018-11-06T00:38:45.186Z,794.39
2018-11-06T00:38:49.495Z,794.44
2018-11-06T00:38:53.707Z,794.42
2018-11-06T00:38:57.908Z,794.4
2018-11-06T00:39:02.422Z,794.42
2018-11-06T00:39:06.523Z,794.41
2018-11-06T00:39:10.837Z,794.33
2018-11-06T00:39:15.149Z,794.33
2018-11-06T00:39:19.135Z,794.31
2018-11-06T00:39:23.440Z,794.3
2018-11-06T00:39:27.330Z,794.34
2018-11-06T00:39:31.643Z,794.38
2018-11-06T00:39:35.735Z,794.38
2018-11-06T00:39:39.851Z,794.41
2018-11-06T00:39:44.151Z,794.38
2018-11-06T00:39:48.250Z,794.37
2018-11-06T00:39:52.557Z,794.36
2018-11-06T00:39:56.757Z,794.33
2018-11-06T00:40:00.852Z,794.35
2018-11-06T00:40:05.070Z,794.33
2018-11-06T00:40:09.169Z,794.39
2018-11-06T00:40:13.487Z,794.36
2018-11-06T00:40:17.704Z,794.38
2018-11-06T00:40:21.704Z,794.38
2018-11-06T00:40:25.912Z,794.35
2018-11-06T00:40:30.006Z,794.34
2018-11-06T00:40:34.099Z,794.33
2018-11-06T00:40:38.399Z,794.35
2018-11-06T00:40:42.493Z,794.37
2018-11-06T00:40:46.694Z,794.35
2018-11-06T00:40:50.887Z,794.33
2018-11-06T00:40:55.084Z,794.35
2018-11-06T00:40:59.218Z,794.3
2018-11-06T00:41:03.426Z,794.29
2018-11-06T00:41:07.516Z,794.32
2018-11-06T00:41:11.721Z,794.27
2018-11-06T00:41:15.817Z,794.31
2018-11-06T00:41:20.161Z,794.32
2018-11-06T00:41:24.366Z,794.34
2018-11-06T00:41:28.564Z,794.33
2018-11-06T00:41:32.870Z,794.33
2018-11-06T00:41:37.070Z,794.35
2018-11-06T00:41:41.380Z,794.33
2018-11-06T00:41:45.703Z,794.31
2018-11-06T00:41:50.011Z,794.32
2018-11-06T00:41:54.323Z,794.34
2018-11-06T00:41:58.520Z,794.33
2018-11-06T00:42:02.827Z,794.34
2018-11-06T00:42:06.861Z,794.34
2018-11-06T00:42:11.170Z,794.34
2018-11-06T00:42:15.369Z,794.34
2018-11-06T00:42:19.671Z,794.35
2018-11-06T00:42:23.663Z,794.37
2018-11-06T00:42:27.862Z,794.34
2018-11-06T00:42:31.949Z,794.37
2018-11-06T00:42:36.054Z,794.34
2018-11-06T00:42:40.381Z,794.35
2018-11-06T00:42:44.691Z,794.35
2018-11-06T00:42:49.003Z,794.33
2018-11-06T00:42:53.097Z,794.35
2018-11-06T00:42:57.406Z,794.34
2018-11-06T00:43:01.616Z,794.35
2018-11-06T00:43:05.713Z,794.36
2018-11-06T00:43:09.915Z,794.37
2018-11-06T00:43:14.012Z,794.35
2018-11-06T00:43:18.320Z,794.35
2018-11-06T00:43:22.626Z,794.37
2018-11-06T00:43:26.825Z,794.32
2018-11-06T00:43:30.921Z,794.31
2018-11-06T00:43:35.014Z,794.3
2018-11-06T00:43:39.218Z,794.32
2018-11-06T00:43:43.530Z,794.3
2018-11-06T00:43:47.839Z,794.31
2018-11-06T00:43:52.147Z,794.3
2018-11-06T00:43:56.455Z,794.3
2018-11-06T00:44:00.659Z,794.29
2018-11-06T00:44:04.967Z,794.28
2018-11-06T00:44:09.270Z,794.24
2018-11-06T00:44:13.470Z,794.27
2018-11-06T00:44:17.686Z,794.23
2018-11-06T00:44:21.883Z,794.24
2018-11-06T00:44:26.102Z,794.22
2018-11-06T00:44:30.414Z,794.22
2018-11-06T00:44:34.623Z,794.23
2018-11-06T00:44:38.711Z,794.18
2018-11-06T00:44:42.956Z,794.15
2018-11-06T00:44:47.259Z,794.19
2018-11-06T00:44:51.567Z,794.17
2018-11-06T00:44:55.925Z,794.16
2018-11-06T00:45:00.245Z,794.12
2018-11-06T00:45:04.241Z,794.15
2018-11-06T00:45:08.348Z,794.07
2018-11-06T00:45:12.448Z,794.15
2018-11-06T00:45:16.434Z,794.08
2018-11-06T00:45:20.530Z,794.05
2018-11-06T00:45:24.632Z,794.06
2018-11-06T00:45:28.828Z,794.06
2018-11-06T00:45:33.040Z,794.05
2018-11-06T00:45:37.344Z,794.04
2018-11-06T00:45:41.433Z,794.04
2018-11-06T00:45:45.528Z,794.01
2018-11-06T00:45:49.729Z,794.03
2018-11-06T00:45:54.032Z,793.95
2018-11-06T00:45:58.130Z,793.99
2018-11-06T00:46:02.127Z,793.97
2018-11-06T00:46:06.490Z,793.89
2018-11-06T00:46:10.691Z,793.88
2018-11-06T00:46:14.675Z,793.89
2018-11-06T00:46:18.769Z,793.87
2018-11-06T00:46:22.757Z,793.88
2018-11-06T00:46:26.965Z,793.86
2018-11-06T00:46:31.164Z,793.85
2018-11-06T00:46:35.363Z,793.8
2018-11-06T00:46:39.453Z,793.82
2018-11-06T00:46:43.688Z,793.75
2018-11-06T00:46:47.891Z,793.78
2018-11-06T00:46:52.090Z,793.77
2018-11-06T00:46:56.289Z,793.76
2018-11-06T00:47:00.484Z,793.67
2018-11-06T00:47:04.576Z,793.68
2018-11-06T00:47:08.776Z,793.64
2018-11-06T00:47:12.867Z,793.62
2018-11-06T00:47:16.958Z,793.61
2018-11-06T00:47:21.148Z,793.63
2018-11-06T00:47:25.357Z,793.59
2018-11-06T00:47:29.557Z,793.6
2018-11-06T00:47:33.651Z,793.62
2018-11-06T00:47:37.760Z,793.56
2018-11-06T00:47:41.973Z,793.53
2018-11-06T00:47:46.302Z,793.52
2018-11-06T00:47:50.610Z,793.51
2018-11-06T00:47:54.806Z,793.46
2018-11-06T00:47:59.116Z,793.46
2018-11-06T00:48:02.892Z,793.44
2018-11-06T00:48:07.204Z,793.42
2018-11-06T00:48:11.307Z,793.41
2018-11-06T00:48:15.626Z,793.4
2018-11-06T00:48:19.827Z,793.32
2018-11-06T00:48:24.144Z,793.33
2018-11-06T00:48:28.469Z,793.33
2018-11-06T00:48:32.670Z,793.29
2018-11-06T00:48:36.664Z,793.24
2018-11-06T00:48:40.864Z,793.25
2018-11-06T00:48:45.065Z,793.27
2018-11-06T00:48:49.272Z,793.19
2018-11-06T00:48:53.579Z,793.2
2018-11-06T00:48:57.881Z,793.2
2018-11-06T00:49:02.133Z,793.15
2018-11-06T00:49:06.339Z,793.16
2018-11-06T00:49:10.542Z,793.13
2018-11-06T00:49:14.879Z,793.12
2018-11-06T00:49:19.189Z,793.09
2018-11-06T00:49:23.281Z,793.08
2018-11-06T00:49:27.400Z,793.04
2018-11-06T00:49:31.602Z,793.02
2018-11-06T00:49:35.910Z,792.98
2018-11-06T00:49:40.001Z,792.98
2018-11-06T00:49:44.092Z,792.97
2018-11-06T00:49:48.288Z,792.94
2018-11-06T00:49:52.380Z,792.94
2018-11-06T00:49:56.584Z,792.9
2018-11-06T00:50:00.889Z,792.87
2018-11-06T00:50:04.981Z,792.88
2018-11-06T00:50:09.072Z,792.87
2018-11-06T00:50:13.274Z,792.78
2018-11-06T00:50:17.485Z,792.8
2018-11-06T00:50:21.792Z,792.8
2018-11-06T00:50:26.091Z,792.75
2018-11-06T00:50:30.183Z,792.69
2018-11-06T00:50:34.067Z,792.7
2018-11-06T00:50:38.267Z,792.66
2018-11-06T00:50:42.469Z,792.64
2018-11-06T00:50:46.572Z,792.59
2018-11-06T00:50:50.816Z,792.61
2018-11-06T00:50:55.139Z,792.58
2018-11-06T00:50:59.694Z,792.6
2018-11-06T00:51:03.900Z,792.59
2018-11-06T00:51:08.210Z,792.53
2018-11-06T00:51:12.406Z,792.53
2018-11-06T00:51:16.603Z,792.54
2018-11-06T00:51:20.803Z,792.52
2018-11-06T00:51:25.117Z,792.49
2018-11-06T00:51:29.437Z,792.46
2018-11-06T00:51:33.426Z,792.46
2018-11-06T00:51:37.413Z,792.44
2018-11-06T00:51:41.612Z,792.42
2018-11-06T00:51:45.824Z,792.44
2018-11-06T00:51:50.143Z,792.44
2018-11-06T00:51:54.449Z,792.43
2018-11-06T00:51:58.646Z,792.36
2018-11-06T00:52:02.951Z,792.4
2018-11-06T00:52:07.152Z,792.4
2018-11-06T00:52:11.376Z,792.37
2018-11-06T00:52:15.468Z,792.36
2018-11-06T00:52:19.558Z,792.32
2018-11-06T00:52:23.649Z,792.33
2018-11-06T00:52:27.746Z,792.31
2018-11-06T00:52:32.047Z,792.33
2018-11-06T00:52:36.261Z,792.26
2018-11-06T00:52:40.464Z,792.28
2018-11-06T00:52:44.773Z,792.23